VAAH

Sardar Vallabhbhai Patel International Airport

Ahmedabad, India
TAF VAAH 251700Z 2518/2624 23004KT 4000 FU NSC BECMG 2601/2603 32004KT 3000 FU BECMG 2605/2607 27004KT 6000 BECMG 2613/2615 16004KT 4000 FU
Issued Valid From Valid To
Apr-25 @ 17:00 UTC
(an hour ago)
Apr-25 @ 18:00 UTC
(a few seconds ago)
Apr-27 @ 00:00 UTC
(-1 days ago)
Apr-25 @ 18:00 to Apr-26 @ 01:00
TAF VAAH 251700Z 2518/2624 23004KT 4000 FU NSC
Wind Visibility Clouds Conditions
230° at 4 knots 4,007 meters
  • No significant clouds
  • Smoke
Becoming Apr-26 @ 01:00 to Apr-26 @ 05:00
BECMG 2601/2603 32004KT 3000 FU
Wind Visibility Clouds Conditions
320° at 4 knots 2,993 meters
  • No significant clouds
  • Smoke
Becoming Apr-26 @ 05:00 to Apr-26 @ 13:00
BECMG 2605/2607 27004KT 6000
Wind Visibility Clouds Conditions
270° at 4 knots 6,003 meters
  • No significant clouds
  • Smoke
Becoming Apr-26 @ 13:00 to Apr-27 @ 00:00
BECMG 2613/2615 16004KT 4000 FU
Wind Visibility Clouds Conditions
160° at 4 knots 4,007 meters
  • No significant clouds
  • Smoke
TAF VAAH 251700Z 2518/2624 23004KT 4000 FU NSC BECMG 2601/2603 32004KT 3000 FU BECMG 2605/2607 27004KT 6000 BECMG 2613/2615 16004KT 4000 FU
Issued Apr-25 @ 17:00 UTC
(an hour ago)
Valid From Apr-25 @ 18:00 UTC
(a few seconds ago)
Valid To Apr-27 @ 00:00 UTC
(-1 days ago)
Apr-25 @ 18:00 - Apr-26 @ 01:00
Wind Visibility
230° at 4 knots 4,007 meters
Clouds
  • No significant clouds
Conditions
  • Smoke
Becoming Apr-26 @ 01:00 - Apr-26 @ 05:00
Wind Visibility
320° at 4 knots 2,993 meters
Clouds
  • No significant clouds
Conditions
  • Smoke
Becoming Apr-26 @ 05:00 - Apr-26 @ 13:00
Wind Visibility
270° at 4 knots 6,003 meters
Clouds
  • No significant clouds
Conditions
  • Smoke
Becoming Apr-26 @ 13:00 - Apr-27 @ 00:00
Wind Visibility
160° at 4 knots 4,007 meters
Clouds
  • No significant clouds
Conditions
  • Smoke